Nebraska City, NE

11:33 AM CST on February 12, 2016 (GMT -0600)
Nebraska City Municipal | | Change Station
CLOSE
Current Station
Airport
Location: Nebraska City,
Elevation: 1161 ft
Nearby Weather Stations

Elev 1161 ft 40.61 °N, 95.86 °W | Updated 18 minutes ago

Overcast
Overcast
26 °F
Feels Like 15 °F
N
13
Wind Variable Wind from North

Today
High -- | Low -- °F
--% Chance of Precip.
Yesterday
High -- | Low -- °F
Precip. -- in
Pressure 30.48 in
Visibility 10.0 miles
Clouds Overcast 1800 ft
Windchill 15 °F
Dew Point 17 °F
Humidity 70%
Rainfall 0.00 in
Snow Depth Not available.
7:21 AM 5:54 PM
Waxing Crescent, 22% visible
METAR KAFK 121715Z AUTO 36011KT 10SM OVC018 M03/M08 A3048 RMK AO2 T10351083
Pressure 30.48 in
Visibility 10.0 miles
Clouds Overcast 1800 ft
Windchill 15 °F
Dew Point 17 °F
Humidity 70%
Rainfall 0.00 in
Snow Depth Not available.
7:21 AM 5:54 PM
Waxing Crescent, 22% visible
METAR KAFK 121715Z AUTO 36011KT 10SM OVC018 M03/M08 A3048 RMK AO2 T10351083

10-Day Weather Forecast

Almanac

Astronomy

Feb. 12, 2016 Rise Set
Actual Time
Civil Twilight
Nautical Twilight
Astronomical Twilight
Moon
Length of Visible Light
Length of Day
Tomorrow will be .
, % of the Moon is Illuminated

Today's Extremes

State Highs State Lows

Community

WunderPhotos

Upload Photos

1,892,354 photos uploaded!

WunderBlog® & News

Nearby

Air Quality

  Air Quality AQ Index Pollutant
Not available.

Snow Depth

Station Depth Elevation

Earthquake Activity

City Distance Mag. Time & Date
Minimum magnitude displayed is 2.5.

Coastal Water Temperatures

Place Temperature

Stations

Nearby Weather Stations

Station Location Temp. Windchill Dew Point Humidity Wind Precip. Elev Updated Type
                   

Watches & Warnings

There are currently no watches in effect.